Time;durP1;ratioP1;P1;durP2;ratioP2;P2;SDS_P1;SDS_P2;PMS_P1;PMS_P2;Temp;Humidity;BMP_temperature;BMP_pressure;BME280_temperature;BME280_humidity;BME280_pressure;Samples;Min_cycle;Max_cycle;Signal;HPM_P1;HPM_P2
2021/07/24 00:02:11;;;;;;;11.93;6.40;;;;;;;23.79;46.62;99442.84;5010392;28;20030;-68
2021/07/24 00:04:36;;;;;;;20.42;6.93;;;;;;;23.74;46.58;99440.50;5010362;28;20088;-68
2021/07/24 00:07:02;;;;;;;19.08;6.43;;;;;;;23.80;47.04;99440.81;5010197;28;20088;-69
2021/07/24 00:09:29;;;;;;;21.77;6.90;;;;;;;23.77;47.36;99438.81;5008843;28;20030;-69
2021/07/24 00:11:55;;;;;;;17.92;6.30;;;;;;;23.77;46.99;99441.66;5010696;28;20081;-68
2021/07/24 00:14:21;;;;;;;15.02;6.50;;;;;;;23.70;46.79;99439.69;5008321;28;20496;-68
2021/07/24 00:16:46;;;;;;;18.65;6.97;;;;;;;23.69;46.90;99438.91;5009026;28;20060;-69
2021/07/24 00:19:11;;;;;;;12.50;6.15;;;;;;;23.68;46.93;99443.00;5010008;28;20054;-68
2021/07/24 00:21:37;;;;;;;13.60;6.70;;;;;;;23.60;46.42;99437.81;5010151;28;20033;-68
2021/07/24 00:24:03;;;;;;;17.02;6.57;;;;;;;23.58;46.46;99443.09;5010166;28;20061;-67
2021/07/24 00:26:28;;;;;;;10.57;6.05;;;;;;;23.58;46.66;99441.06;5011265;28;20590;-68
2021/07/24 00:28:54;;;;;;;14.98;6.53;;;;;;;23.88;45.79;99450.09;5012528;28;20088;-68
2021/07/24 00:31:19;;;;;;;19.77;6.72;;;;;;;23.77;46.35;99444.50;5013925;28;20064;-68
2021/07/24 00:33:44;;;;;;;11.27;6.07;;;;;;;23.45;47.20;99454.28;5013656;28;20026;-68
2021/07/24 00:36:10;;;;;;;15.45;5.85;;;;;;;23.63;46.52;99446.31;5012398;28;20053;-68
2021/07/24 00:38:39;;;;;;;13.65;5.75;;;;;;;23.65;46.62;99440.19;5013456;28;20026;-69
2021/07/24 00:41:20;;;;;;;15.15;6.68;;;;;;;23.51;47.17;99446.84;5012169;28;20096;-69
2021/07/24 00:43:49;;;;;;;10.30;6.00;;;;;;;23.59;45.66;99441.88;5013329;28;20459;-68
2021/07/24 00:46:14;;;;;;;11.30;5.82;;;;;;;23.75;45.56;99447.00;5013536;28;20500;-68
2021/07/24 00:48:42;;;;;;;13.23;6.43;;;;;;;23.58;46.26;99449.63;5013499;28;20030;-68
2021/07/24 00:51:08;;;;;;;11.48;6.18;;;;;;;23.66;45.05;99451.19;5013475;28;20101;-67
2021/07/24 00:53:36;;;;;;;9.70;5.22;;;;;;;23.67;45.02;99449.94;5013197;28;20040;-67
2021/07/24 00:56:04;;;;;;;8.23;5.70;;;;;;;23.59;44.70;99442.69;5012043;28;20034;-69
2021/07/24 00:58:32;;;;;;;11.15;5.18;;;;;;;23.68;44.06;99443.00;5013165;28;20172;-68
2021/07/24 01:01:00;;;;;;;8.77;6.03;;;;;;;23.67;44.17;99449.13;5013021;28;20033;-69
2021/07/24 01:03:26;;;;;;;7.78;5.50;;;;;;;23.66;43.91;99451.19;5013130;28;20034;-68
2021/07/24 01:05:55;;;;;;;11.77;6.15;;;;;;;23.63;44.10;99440.59;5013038;28;20041;-69
2021/07/24 01:08:21;;;;;;;8.35;5.88;;;;;;;23.58;44.03;99446.78;5011500;28;20041;-69
2021/07/24 01:10:48;;;;;;;13.65;5.68;;;;;;;23.48;44.44;99453.41;5012861;28;20033;-67
2021/07/24 01:13:17;;;;;;;10.02;5.28;;;;;;;23.44;44.65;99449.81;5012668;28;20025;-67
2021/07/24 01:15:53;;;;;;;8.47;5.23;;;;;;;23.39;44.55;99443.31;5012975;28;20056;-68
2021/07/24 01:18:19;;;;;;;10.70;5.30;;;;;;;23.38;44.77;99444.53;5012640;28;20523;-69
2021/07/24 01:20:46;;;;;;;6.75;5.55;;;;;;;23.36;44.82;99443.38;5011442;28;20128;-68
2021/07/24 01:23:13;;;;;;;9.73;5.65;;;;;;;23.32;44.89;99448.28;5027840;28;20105;-68
2021/07/24 01:25:47;;;;;;;11.13;5.70;;;;;;;23.19;45.10;99437.38;5012672;28;20033;-68
2021/07/24 01:28:13;;;;;;;13.55;5.53;;;;;;;23.09;45.54;99441.97;5012422;28;20065;-68
2021/07/24 01:30:41;;;;;;;11.77;5.65;;;;;;;22.96;45.75;99435.16;5012613;28;20037;-68
2021/07/24 01:33:06;;;;;;;9.07;5.63;;;;;;;22.88;46.05;99445.00;5027694;28;20041;-69
2021/07/24 01:35:32;;;;;;;11.10;5.90;;;;;;;22.77;46.58;99448.75;5012431;28;20018;-70
2021/07/24 01:37:57;;;;;;;10.95;6.60;;;;;;;22.89;46.36;99441.75;5012225;28;20030;-69
2021/07/24 01:40:23;;;;;;;11.57;4.90;;;;;;;22.91;46.32;99447.00;5012268;28;20038;-68
2021/07/24 01:42:48;;;;;;;10.32;6.50;;;;;;;22.88;46.24;99447.84;5012308;28;20103;-68
2021/07/24 01:45:13;;;;;;;8.70;6.07;;;;;;;22.84;46.38;99439.31;5012277;28;20041;-68
2021/07/24 01:47:39;;;;;;;12.32;5.75;;;;;;;22.82;46.63;99444.63;5012013;28;20025;-68
2021/07/24 01:52:51;;;;;;;9.70;7.00;;;;;;;22.83;46.65;99437.69;5012395;28;20057;-69
2021/07/24 01:55:31;;;;;;;8.98;6.03;;;;;;;22.84;46.57;99437.28;5012057;28;20491;-69
2021/07/24 01:57:59;;;;;;;9.80;5.82;;;;;;;22.80;46.56;99436.50;5027204;28;20072;-68
2021/07/24 02:00:24;;;;;;;11.63;6.18;;;;;;;22.69;47.03;99432.94;5012064;28;20041;-69
2021/07/24 02:02:53;;;;;;;11.63;5.90;;;;;;;22.46;47.59;99434.31;5026841;28;20037;-68
2021/07/24 02:05:34;;;;;;;8.32;6.28;;;;;;;22.41;47.67;99444.09;5011888;28;20029;-69
2021/07/24 02:08:03;;;;;;;14.32;6.38;;;;;;;22.23;48.15;99444.22;5011246;28;20470;-67
2021/07/24 02:10:29;;;;;;;8.52;6.18;;;;;;;22.15;48.37;99442.63;5011953;28;20539;-68
2021/07/24 02:12:55;;;;;;;9.30;6.10;;;;;;;21.83;49.60;99443.56;5011560;28;20608;-68
2021/07/24 02:15:20;;;;;;;9.43;6.97;;;;;;;21.82;49.38;99448.47;5026983;28;20057;-68
2021/07/24 02:17:46;;;;;;;8.50;6.50;;;;;;;21.83;49.42;99437.88;5011303;28;20140;-69
2021/07/24 02:20:14;;;;;;;8.45;6.00;;;;;;;21.73;49.60;99451.75;5011735;28;20041;-68
2021/07/24 02:22:39;;;;;;;16.70;6.68;;;;;;;21.57;50.44;99451.38;5011479;28;20123;-69
2021/07/24 02:25:05;;;;;;;12.35;6.57;;;;;;;21.54;50.48;99452.19;5011320;28;20025;-68
2021/07/24 02:27:32;;;;;;;8.27;6.50;;;;;;;21.59;50.43;99455.44;5011625;28;20045;-69
2021/07/24 02:29:58;;;;;;;10.48;6.95;;;;;;;21.58;50.04;99455.84;5011350;28;20425;-68
2021/07/24 02:32:23;;;;;;;10.45;6.22;;;;;;;21.78;49.88;99455.41;5011528;28;20029;-68
2021/07/24 02:34:49;;;;;;;10.65;7.22;;;;;;;21.71;50.26;99448.50;5026396;28;20034;-68
2021/07/24 02:37:14;;;;;;;12.68;6.95;;;;;;;21.63;50.78;99446.88;5011854;28;20395;-68
2021/07/24 02:39:39;;;;;;;10.35;6.50;;;;;;;21.56;51.17;99446.91;5026439;28;20399;-68
2021/07/24 02:42:05;;;;;;;11.02;7.53;;;;;;;21.63;51.36;99446.88;5009943;28;20446;-69
2021/07/24 02:44:31;;;;;;;9.07;6.97;;;;;;;21.41;52.29;99443.28;5011246;28;20057;-69
2021/07/24 02:46:56;;;;;;;11.50;7.63;;;;;;;21.55;51.44;99446.09;5011576;28;20297;-67
2021/07/24 02:49:22;;;;;;;16.63;8.75;;;;;;;21.50;51.86;99454.25;5010476;28;20041;-69
2021/07/24 02:51:47;;;;;;;13.68;8.55;;;;;;;21.57;51.25;99454.22;5010782;28;20392;-68
2021/07/24 02:54:12;;;;;;;20.10;8.57;;;;;;;21.65;51.23;99452.16;5026347;28;20038;-68
2021/07/24 02:56:38;;;;;;;14.48;7.05;;;;;;;21.42;51.98;99454.25;5011397;28;20484;-68
2021/07/24 02:59:03;;;;;;;13.90;8.18;;;;;;;21.41;52.15;99455.47;5026006;28;20029;-68
2021/07/24 03:01:29;;;;;;;16.95;7.05;;;;;;;21.43;52.32;99466.47;5011187;28;20096;-69
2021/07/24 03:03:54;;;;;;;11.43;6.97;;;;;;;21.45;52.22;99461.16;5010791;28;20091;-68
2021/07/24 03:06:20;;;;;;;11.68;7.82;;;;;;;21.37;52.43;99456.72;5011301;28;20041;-68
2021/07/24 03:08:45;;;;;;;11.18;8.05;;;;;;;21.49;51.65;99464.00;5026833;28;20057;-68
2021/07/24 03:11:11;;;;;;;16.00;7.28;;;;;;;21.77;50.68;99465.16;5026331;28;20033;-68
2021/07/24 03:13:36;;;;;;;22.48;9.15;;;;;;;21.84;50.42;99465.13;5010824;28;20022;-68
2021/07/24 03:16:02;;;;;;;29.88;12.43;;;;;;;21.68;51.14;99462.75;5010714;28;20417;-69
2021/07/24 03:18:28;;;;;;;21.58;9.13;;;;;;;21.78;50.93;99466.78;5010975;28;20105;-68
2021/07/24 03:20:53;;;;;;;22.75;9.18;;;;;;;21.45;52.35;99461.16;5010855;28;20029;-68
2021/07/24 03:23:18;;;;;;;19.13;7.95;;;;;;;21.49;52.27;99455.47;5025581;28;20037;-68
2021/07/24 03:25:44;;;;;;;18.65;7.78;;;;;;;21.40;52.86;99462.38;5010876;28;20034;-68
2021/07/24 03:28:09;;;;;;;17.65;9.00;;;;;;;21.49;52.54;99464.81;5010615;28;20037;-68
2021/07/24 03:30:38;;;;;;;19.35;8.82;;;;;;;21.43;52.44;99469.31;5010783;28;20076;-69
2021/07/24 03:33:03;;;;;;;25.80;8.32;;;;;;;21.68;51.68;99465.59;5025553;28;20034;-68
2021/07/24 03:35:29;;;;;;;20.85;8.70;;;;;;;21.74;51.25;99469.63;5025445;28;20030;-68
2021/07/24 03:37:54;;;;;;;15.23;8.00;;;;;;;21.82;50.92;99468.41;5009304;28;20458;-68
2021/07/24 03:40:20;;;;;;;20.20;8.15;;;;;;;21.88;50.78;99465.94;5010279;28;20026;-68
2021/07/24 03:42:45;;;;;;;14.88;6.82;;;;;;;21.29;52.92;99470.13;5010180;28;20038;-68
2021/07/24 03:45:12;;;;;;;20.85;7.43;;;;;;;21.19;52.65;99480.31;5010249;28;20044;-68
2021/07/24 03:47:37;;;;;;;19.92;7.70;;;;;;;21.46;52.06;99471.31;5009107;28;20034;-68
2021/07/24 03:50:03;;;;;;;29.63;8.75;;;;;;;21.61;51.66;99474.94;5010283;28;20088;-68
2021/07/24 03:52:28;;;;;;;18.50;8.63;;;;;;;21.52;51.81;99481.03;4993256;28;20440;-73
2021/07/24 03:54:54;;;;;;;18.38;7.95;;;;;;;21.46;51.59;99472.13;5017694;28;20022;-70
2021/07/24 03:57:19;;;;;;;12.23;7.72;;;;;;;21.38;51.71;99481.09;5008749;28;20084;-70
2021/07/24 03:59:44;;;;;;;21.38;8.73;;;;;;;21.37;51.89;99485.97;5012095;28;20064;-69
2021/07/24 04:02:17;;;;;;;16.27;8.75;;;;;;;21.39;51.54;99488.41;5013760;28;20085;-69
2021/07/24 04:04:45;;;;;;;17.90;8.52;;;;;;;21.44;51.46;99493.69;5014095;28;20033;-76
2021/07/24 04:07:12;;;;;;;13.10;9.48;;;;;;;21.49;51.12;99487.56;5012746;28;20018;-71
2021/07/24 04:09:37;;;;;;;13.30;8.90;;;;;;;21.48;51.25;99487.97;5011627;28;20034;-72
2021/07/24 04:12:03;;;;;;;16.52;8.32;;;;;;;21.37;51.72;99479.47;5013824;28;20022;-71
2021/07/24 04:14:29;;;;;;;13.13;8.43;;;;;;;21.40;51.87;99490.84;5013182;28;20061;-70
2021/07/24 04:16:55;;;;;;;21.70;9.30;;;;;;;21.43;51.69;99498.56;5013116;28;20053;-70
2021/07/24 04:19:20;;;;;;;17.65;9.48;;;;;;;21.45;51.62;99496.09;5016871;28;20514;-70
2021/07/24 04:21:46;;;;;;;13.75;9.88;;;;;;;21.57;51.17;99488.34;5012994;28;20068;-72
2021/07/24 04:24:12;;;;;;;17.73;8.60;;;;;;;21.65;51.23;99492.00;5013669;28;20443;-70
2021/07/24 04:26:38;;;;;;;18.05;8.90;;;;;;;21.68;51.10;99486.31;5013770;28;20030;-71
2021/07/24 04:29:08;;;;;;;13.55;8.55;;;;;;;21.45;51.78;99487.56;5013585;28;20022;-70
2021/07/24 04:31:34;;;;;;;14.93;7.97;;;;;;;21.45;51.90;99493.25;5013334;28;20026;-70
2021/07/24 04:33:59;;;;;;;15.20;8.18;;;;;;;21.31;52.01;99494.09;5012328;28;20576;-71
2021/07/24 04:36:25;;;;;;;23.77;8.07;;;;;;;21.41;51.94;99501.00;5013931;28;20061;-70
2021/07/24 04:38:50;;;;;;;11.20;8.18;;;;;;;21.51;51.50;99504.25;5011540;28;20034;-71
2021/07/24 04:41:17;;;;;;;11.77;8.18;;;;;;;21.59;51.38;99497.28;5013710;28;20038;-70
2021/07/24 04:43:43;;;;;;;8.98;7.28;;;;;;;21.58;51.06;99496.50;5013187;28;20302;-70
2021/07/24 04:46:09;;;;;;;8.65;7.50;;;;;;;21.31;51.82;99498.97;5012207;28;20446;-71
2021/07/24 04:48:34;;;;;;;23.60;7.60;;;;;;;21.60;50.84;99502.59;5012963;28;20044;-71
2021/07/24 04:51:00;;;;;;;13.02;7.57;;;;;;;21.69;50.20;99502.19;5013335;28;20045;-70
2021/07/24 04:53:26;;;;;;;13.75;7.28;;;;;;;21.71;50.11;99494.03;5011973;28;20046;-70
2021/07/24 04:55:52;;;;;;;12.25;6.65;;;;;;;21.76;50.11;99495.66;5011877;28;20460;-71
2021/07/24 04:58:18;;;;;;;9.55;6.72;;;;;;;21.84;49.90;99491.56;5012069;28;20486;-70
2021/07/24 05:00:46;;;;;;;16.50;7.38;;;;;;;21.71;50.18;99487.53;5011700;28;20030;-71
2021/07/24 05:03:16;;;;;;;11.75;6.90;;;;;;;21.53;50.02;99494.06;5011895;28;20030;-71
2021/07/24 05:05:42;;;;;;;8.82;6.75;;;;;;;21.63;50.26;99492.41;5011768;28;20026;-71
2021/07/24 05:08:09;;;;;;;15.20;7.75;;;;;;;21.73;50.39;99496.47;5012508;28;20045;-71
2021/07/24 05:10:35;;;;;;;11.35;7.80;;;;;;;21.77;49.96;99496.47;5012274;28;20034;-71
2021/07/24 05:13:01;;;;;;;21.98;7.32;;;;;;;21.80;50.26;99496.47;5012459;28;20034;-71
2021/07/24 05:15:26;;;;;;;16.40;7.75;;;;;;;21.70;51.14;99495.25;5010895;28;20041;-71
2021/07/24 05:17:52;;;;;;;23.60;8.55;;;;;;;21.82;50.91;99494.03;5012626;28;20065;-73
2021/07/24 05:20:17;;;;;;;14.10;8.63;;;;;;;21.80;51.00;99502.16;5011497;28;20037;-74
2021/07/24 05:22:43;;;;;;;22.83;9.23;;;;;;;21.93;50.79;99493.97;5012664;28;20040;-73
2021/07/24 05:25:09;;;;;;;20.85;9.75;;;;;;;21.93;50.75;99499.66;5012719;28;20026;-72
2021/07/24 05:27:34;;;;;;;14.85;9.38;;;;;;;22.01;50.65;99503.28;5012959;28;20033;-72
2021/07/24 05:30:00;;;;;;;47.78;12.15;;;;;;;22.11;50.54;99499.59;5012325;28;20021;-72
2021/07/24 05:32:26;;;;;;;24.48;9.90;;;;;;;22.06;50.13;99502.88;5012444;28;20042;-72
2021/07/24 05:34:51;;;;;;;19.67;10.57;;;;;;;22.13;50.00;99490.66;5012323;28;20515;-72
2021/07/24 05:37:17;;;;;;;18.90;8.55;;;;;;;22.17;50.30;99497.13;5012440;28;20034;-71
2021/07/24 05:39:42;;;;;;;40.97;10.88;;;;;;;22.29;49.85;99498.72;5012388;28;20021;-72
2021/07/24 05:42:08;;;;;;;24.83;10.40;;;;;;;22.26;49.73;99493.81;5010560;28;20124;-73
2021/07/24 05:44:33;;;;;;;17.25;9.95;;;;;;;22.22;48.75;99499.56;5012334;28;20030;-72
2021/07/24 05:47:01;;;;;;;14.85;9.38;;;;;;;22.24;48.88;99496.28;5010910;28;20025;-74
2021/07/24 05:49:27;;;;;;;20.42;9.05;;;;;;;22.37;48.07;99496.63;5001609;28;20135;-72
2021/07/24 05:51:52;;;;;;;17.60;9.20;;;;;;;22.40;47.02;99495.78;5012402;28;20022;-73
2021/07/24 05:54:18;;;;;;;12.23;8.00;;;;;;;22.54;46.62;99487.19;5010949;28;20499;-72
2021/07/24 05:56:43;;;;;;;12.75;7.50;;;;;;;22.58;46.59;99487.97;5011972;28;20069;-71
2021/07/24 05:59:08;;;;;;;13.93;7.80;;;;;;;22.71;46.99;99487.50;5012029;28;20037;-72
2021/07/24 06:01:34;;;;;;;13.05;6.55;;;;;;;22.76;46.48;99491.94;5012241;28;20388;-74
2021/07/24 06:04:00;;;;;;;14.18;8.07;;;;;;;22.71;46.21;99488.28;5027114;28;20041;-75
2021/07/24 06:06:26;;;;;;;12.70;7.22;;;;;;;22.81;46.71;99486.59;5012184;28;20018;-75
2021/07/24 06:08:51;;;;;;;14.38;7.07;;;;;;;23.02;46.22;99481.94;5026780;28;20030;-76
2021/07/24 06:11:17;;;;;;;12.35;7.10;;;;;;;23.19;45.67;99480.16;5012026;28;20022;-77
2021/07/24 06:13:42;;;;;;;15.68;6.63;;;;;;;23.25;46.14;99489.06;5011824;28;20038;-73
2021/07/24 06:16:09;;;;;;;15.32;6.00;;;;;;;23.39;45.39;99491.03;5011749;28;20419;-76
2021/07/24 06:18:35;;;;;;;11.73;6.28;;;;;;;23.61;44.98;99485.09;5011651;28;20050;-73
2021/07/24 06:21:00;;;;;;;12.07;6.72;;;;;;;23.75;44.68;99484.94;5010209;28;20033;-74
2021/07/24 06:23:26;;;;;;;16.45;6.15;;;;;;;23.80;44.22;99489.38;5009164;28;20033;-72
2021/07/24 06:25:51;;;;;;;12.40;6.80;;;;;;;23.82;44.18;99492.59;5011727;28;20030;-75
2021/07/24 06:28:17;;;;;;;12.82;6.38;;;;;;;23.80;43.91;99483.66;5011210;28;20053;-70
2021/07/24 06:30:43;;;;;;;9.98;6.50;;;;;;;23.86;43.83;99481.16;5011535;28;20041;-69
2021/07/24 06:33:09;;;;;;;11.90;7.03;;;;;;;23.90;43.18;99479.88;5026610;28;20044;-70
2021/07/24 06:35:34;;;;;;;11.98;6.43;;;;;;;23.81;43.95;99485.28;5011466;28;20085;-69
2021/07/24 06:38:00;;;;;;;7.70;6.32;;;;;;;23.87;43.86;99483.56;5010010;28;20037;-69
2021/07/24 06:40:25;;;;;;;18.35;6.90;;;;;;;24.08;44.02;99493.13;5024290;28;20041;-70
2021/07/24 06:42:51;;;;;;;11.45;6.50;;;;;;;24.20;43.94;99483.19;5008153;28;20022;-70
2021/07/24 06:45:17;;;;;;;14.57;6.47;;;;;;;24.25;43.36;99483.53;5008898;28;20411;-70
2021/07/24 06:47:42;;;;;;;11.18;5.90;;;;;;;24.33;42.38;99480.56;5008803;28;20036;-70
2021/07/24 06:50:08;;;;;;;7.47;5.78;;;;;;;24.48;42.20;99481.97;5008586;28;20018;-70
2021/07/24 06:52:34;;;;;;;11.57;5.60;;;;;;;24.57;41.82;99477.75;5007714;28;20105;-69
2021/07/24 06:54:59;;;;;;;6.97;5.60;;;;;;;24.51;42.20;99475.41;5008059;28;20061;-70
2021/07/24 06:57:25;;;;;;;12.52;6.18;;;;;;;24.56;42.47;99476.16;5008399;28;20463;-70
2021/07/24 06:59:50;;;;;;;9.77;5.93;;;;;;;24.61;42.16;99472.78;5008889;28;20021;-69
2021/07/24 07:02:16;;;;;;;8.20;6.18;;;;;;;24.73;42.26;99480.78;5009797;28;20092;-70
2021/07/24 07:04:41;;;;;;;10.27;6.65;;;;;;;24.86;41.40;99474.47;5008608;28;20038;-70
2021/07/24 07:07:07;;;;;;;16.42;8.07;;;;;;;24.98;42.31;99479.63;5009704;28;20025;-70
2021/07/24 07:09:35;;;;;;;18.95;10.70;;;;;;;25.00;42.55;99485.72;5010204;28;20380;-71
2021/07/24 07:12:01;;;;;;;10.27;7.82;;;;;;;25.07;41.80;99484.78;5010915;28;20022;-71
2021/07/24 07:14:27;;;;;;;10.35;5.90;;;;;;;25.21;41.14;99473.06;5009883;28;20455;-70
2021/07/24 07:16:53;;;;;;;18.50;9.43;;;;;;;25.24;40.87;99474.25;5005041;28;20030;-73
2021/07/24 07:19:19;;;;;;;13.10;7.57;;;;;;;25.40;40.52;99464.16;5008818;28;20472;-73
2021/07/24 07:21:45;;;;;;;13.07;6.53;;;;;;;25.44;40.29;99470.63;5010485;28;20056;-71
2021/07/24 07:24:11;;;;;;;10.93;5.85;;;;;;;25.49;40.53;99464.44;5011089;28;20492;-72
2021/07/24 07:26:36;;;;;;;7.53;6.78;;;;;;;25.62;40.47;99453.94;5010226;28;20112;-73
2021/07/24 07:29:03;;;;;;;12.60;6.90;;;;;;;25.68;40.09;99451.38;5009314;28;20034;-77
2021/07/24 07:31:30;;;;;;;10.80;5.72;;;;;;;25.72;40.30;99452.09;5009223;28;20044;-72
2021/07/24 07:33:56;;;;;;;11.45;6.30;;;;;;;25.85;39.90;99460.84;5000292;28;20443;-74
2021/07/24 07:36:21;;;;;;;12.88;5.03;;;;;;;26.00;39.36;99458.47;5009374;28;20073;-73
2021/07/24 07:38:47;;;;;;;20.70;6.15;;;;;;;26.08;40.02;99454.22;5007492;28;20495;-73
2021/07/24 07:41:13;;;;;;;12.32;5.22;;;;;;;26.12;38.92;99459.88;5008697;28;20159;-74
2021/07/24 07:43:39;;;;;;;15.27;5.60;;;;;;;26.14;39.20;99456.59;5008393;28;20084;-73
2021/07/24 07:46:04;;;;;;;13.07;6.10;;;;;;;26.21;38.68;99453.56;5008535;28;20054;-75
2021/07/24 07:48:34;;;;;;;31.10;6.93;;;;;;;26.28;38.97;99449.72;5008188;28;20123;-76
2021/07/24 07:51:00;;;;;;;13.23;5.88;;;;;;;26.30;39.82;99450.91;5006866;28;20479;-76
2021/07/24 07:53:25;;;;;;;8.98;5.53;;;;;;;26.35;38.43;99452.44;5009108;28;20068;-76
2021/07/24 07:55:51;;;;;;;11.55;5.72;;;;;;;26.44;39.24;99444.06;5005225;28;20053;-74
2021/07/24 07:58:16;;;;;;;15.48;5.65;;;;;;;26.58;39.54;99442.09;5010037;28;20045;-71
2021/07/24 08:00:42;;;;;;;8.38;5.78;;;;;;;26.71;40.10;99447.91;5008848;28;20029;-75
2021/07/24 08:03:07;;;;;;;280.33;33.05;;;;;;;26.67;39.04;99439.41;5010161;28;20026;-71
2021/07/24 08:05:33;;;;;;;25.33;8.05;;;;;;;26.74;39.36;99439.22;5010044;28;20080;-71
2021/07/24 08:07:58;;;;;;;10.18;5.82;;;;;;;26.85;36.89;99449.63;5010208;28;20022;-71
2021/07/24 08:10:24;;;;;;;8.25;5.22;;;;;;;26.91;37.04;99447.88;5010394;28;20029;-71
2021/07/24 08:12:50;;;;;;;10.73;5.93;;;;;;;27.07;35.87;99447.03;5009865;28;20022;-75
2021/07/24 08:15:16;;;;;;;12.18;5.55;;;;;;;27.29;34.29;99446.47;4998062;28;20038;-74
2021/07/24 08:17:42;;;;;;;45.65;5.82;;;;;;;27.26;35.97;99445.31;5007670;28;20065;-74
2021/07/24 08:20:08;;;;;;;10.73;4.70;;;;;;;27.24;36.39;99442.09;5010116;28;20030;-74
2021/07/24 08:22:34;;;;;;;11.82;5.03;;;;;;;27.40;35.81;99431.84;5010080;28;20112;-75
2021/07/24 08:25:00;;;;;;;18.27;6.68;;;;;;;27.44;34.00;99438.28;5009986;28;20104;-74
2021/07/24 08:27:25;;;;;;;9.10;4.82;;;;;;;27.44;35.61;99429.69;5009859;28;20092;-71
2021/07/24 08:29:52;;;;;;;7.80;5.25;;;;;;;27.58;34.94;99435.03;5009935;28;20105;-75
2021/07/24 08:32:17;;;;;;;10.00;4.43;;;;;;;27.56;33.84;99431.00;5009860;28;20113;-73
2021/07/24 08:34:42;;;;;;;14.90;5.28;;;;;;;27.65;34.54;99421.75;4999297;28;20029;-72
2021/07/24 08:37:09;;;;;;;10.27;4.13;;;;;;;27.51;33.27;99426.59;5010144;28;20026;-73
2021/07/24 08:39:35;;;;;;;10.18;5.45;;;;;;;27.53;34.13;99435.59;5009982;28;20419;-70
2021/07/24 08:42:04;;;;;;;10.63;4.68;;;;;;;27.54;33.79;99427.78;5008459;28;20507;-74
2021/07/24 08:44:29;;;;;;;12.00;5.80;;;;;;;27.70;33.03;99430.63;5009929;28;20038;-72
2021/07/24 08:46:55;;;;;;;6.88;4.95;;;;;;;27.85;31.88;99422.34;5011612;28;20034;-70
2021/07/24 08:49:21;;;;;;;9.45;5.28;;;;;;;28.00;31.85;99411.25;5012049;28;20036;-71
2021/07/24 08:51:48;;;;;;;11.13;4.63;;;;;;;28.07;31.75;99418.06;5013607;28;20054;-70
2021/07/24 08:54:13;;;;;;;22.80;6.25;;;;;;;28.19;32.29;99417.28;5013205;28;20512;-72
2021/07/24 08:56:44;;;;;;;9.73;4.20;;;;;;;28.08;33.30;99417.56;5013016;28;20092;-71
2021/07/24 08:59:13;;;;;;;11.73;4.93;;;;;;;28.19;32.56;99420.16;5011674;28;20022;-73
2021/07/24 09:01:40;;;;;;;24.63;4.38;;;;;;;28.21;33.65;99420.50;5013203;28;20487;-72
2021/07/24 09:04:07;;;;;;;9.88;4.75;;;;;;;28.34;33.18;99422.59;5012966;28;20040;-73
2021/07/24 09:06:32;;;;;;;9.20;4.63;;;;;;;28.55;32.95;99421.09;5013120;28;20029;-69
2021/07/24 09:08:58;;;;;;;13.05;4.82;;;;;;;28.36;31.78;99423.75;5012913;28;20523;-71
2021/07/24 09:11:24;;;;;;;7.60;4.40;;;;;;;28.35;30.45;99418.44;5013042;28;20463;-72
2021/07/24 09:13:49;;;;;;;11.70;4.90;;;;;;;28.41;31.14;99420.28;5011640;28;20037;-71
2021/07/24 09:16:15;;;;;;;7.80;5.13;;;;;;;28.42;31.51;99418.22;5012568;28;20513;-71
2021/07/24 09:18:41;;;;;;;11.45;6.43;;;;;;;28.51;31.72;99418.31;5012827;28;20054;-71
2021/07/24 09:21:07;;;;;;;12.43;5.18;;;;;;;28.54;31.07;99416.59;5028042;28;20119;-70
2021/07/24 09:23:36;;;;;;;8.45;4.45;;;;;;;28.84;29.64;99402.88;5013045;28;20072;-70
2021/07/24 09:26:04;;;;;;;12.75;6.70;;;;;;;28.86;29.07;99406.13;5012768;28;20114;-70
2021/07/24 09:28:30;;;;;;;7.28;4.20;;;;;;;28.80;31.27;99397.25;5012476;28;20034;-70
2021/07/24 09:30:55;;;;;;;19.40;6.70;;;;;;;28.88;30.78;99406.47;5012604;28;20507;-69
2021/07/24 09:33:21;;;;;;;9.45;4.68;;;;;;;28.97;29.66;99406.56;5005889;28;20038;-71
2021/07/24 09:35:52;;;;;;;19.13;5.63;;;;;;;28.94;30.75;99401.72;5010701;28;20391;-71
2021/07/24 09:38:29;;;;;;;13.95;4.45;;;;;;;29.02;30.04;99404.34;5012301;28;20030;-71
2021/07/24 09:40:56;;;;;;;10.15;4.35;;;;;;;28.97;30.42;99400.00;5012069;28;20515;-70
2021/07/24 09:43:36;;;;;;;16.20;5.40;;;;;;;29.02;30.21;99395.72;5011192;28;20029;-69
2021/07/24 09:46:17;;;;;;;10.60;4.97;;;;;;;29.37;30.13;99392.84;5012242;28;20087;-69
2021/07/24 09:48:51;;;;;;;17.88;6.60;;;;;;;29.25;29.59;99389.53;5011835;28;20441;-69
2021/07/24 09:51:33;;;;;;;10.82;5.13;;;;;;;29.14;28.78;99394.88;5011877;28;20569;-68
2021/07/24 09:54:00;;;;;;;5.65;4.75;;;;;;;29.01;29.00;99392.03;5010384;28;20538;-70
2021/07/24 09:56:40;;;;;;;7.53;5.45;;;;;;;29.04;29.48;99387.41;5012033;28;20057;-69
2021/07/24 09:59:28;;;;;;;14.25;5.35;;;;;;;28.97;29.41;99391.34;5025358;28;20518;-69
2021/07/24 10:01:53;;;;;;;6.55;4.55;;;;;;;28.99;29.81;99397.44;5011856;28;20029;-69
2021/07/24 10:04:38;;;;;;;7.18;5.05;;;;;;;29.03;28.67;99385.81;5026752;28;20117;-69
2021/07/24 10:07:05;;;;;;;13.23;6.22;;;;;;;29.05;29.06;99386.16;5011880;28;20026;-69
2021/07/24 10:09:33;;;;;;;6.60;5.53;;;;;;;29.00;29.82;99387.53;5010236;28;20450;-69
2021/07/24 10:12:04;;;;;;;8.15;4.70;;;;;;;29.06;28.81;99384.88;5009991;28;20022;-70
2021/07/24 10:14:29;;;;;;;6.60;4.43;;;;;;;29.08;28.95;99386.03;5026560;28;20042;-70
2021/07/24 10:16:57;;;;;;;8.27;4.97;;;;;;;29.03;29.42;99377.19;5009918;28;20020;-70
2021/07/24 10:19:24;;;;;;;9.30;4.95;;;;;;;29.13;27.70;99368.16;5026575;28;20041;-70
2021/07/24 10:21:53;;;;;;;12.10;5.82;;;;;;;29.41;27.38;99371.28;5011405;28;20030;-70
2021/07/24 10:24:18;;;;;;;10.25;5.40;;;;;;;29.63;29.12;99375.44;5011715;28;20048;-71
2021/07/24 10:27:09;;;;;;;10.63;5.05;;;;;;;29.76;28.23;99350.25;5011207;28;20104;-70
2021/07/24 10:29:41;;;;;;;8.00;5.20;;;;;;;29.96;26.82;99349.06;5003940;28;20060;-70
2021/07/24 10:32:12;;;;;;;9.95;5.60;;;;;;;29.98;26.88;99372.47;5011683;28;20026;-70
2021/07/24 10:34:47;;;;;;;11.65;5.65;;;;;;;29.96;26.90;99367.16;5010938;28;20041;-70
2021/07/24 10:37:42;;;;;;;17.45;5.45;;;;;;;30.18;27.04;99351.91;5011511;28;20072;-70
2021/07/24 10:40:17;;;;;;;19.30;5.80;;;;;;;30.18;26.49;99351.91;5006586;28;20044;-71
2021/07/24 10:42:48;;;;;;;19.10;5.35;;;;;;;30.23;26.95;99354.19;5010698;28;20045;-70
2021/07/24 10:45:31;;;;;;;7.88;4.90;;;;;;;30.26;26.41;99349.53;5010826;28;20030;-71
2021/07/24 10:48:26;;;;;;;10.80;5.30;;;;;;;30.39;27.07;99356.00;5009505;28;20042;-70
2021/07/24 10:50:54;;;;;;;16.65;5.57;;;;;;;30.51;26.29;99351.41;4998280;28;20029;-70
2021/07/24 10:53:21;;;;;;;32.10;7.63;;;;;;;30.43;26.17;99349.28;5004294;28;20144;-71
2021/07/24 10:55:52;;;;;;;7.78;5.85;;;;;;;30.52;25.14;99347.22;5010816;28;20512;-71
2021/07/24 10:58:25;;;;;;;9.07;6.10;;;;;;;30.50;25.57;99346.91;5010667;28;20518;-71
2021/07/24 11:00:52;;;;;;;12.43;6.57;;;;;;;30.40;25.97;99348.94;5010792;28;20030;-71
2021/07/24 11:03:31;;;;;;;8.48;5.15;;;;;;;30.43;24.03;99350.06;5009434;28;20030;-72
2021/07/24 11:05:57;;;;;;;9.87;5.17;;;;;;;30.47;25.88;99355.69;5025736;28;20538;-71
2021/07/24 11:09:02;;;;;;;11.93;5.80;;;;;;;30.63;25.69;99340.19;5010408;28;20069;-71
2021/07/24 11:12:00;;;;;;;6.90;4.82;;;;;;;30.80;25.91;99341.53;5007805;28;20044;-70
2021/07/24 11:14:38;;;;;;;10.25;5.28;;;;;;;30.80;25.59;99346.50;4989753;28;20613;-70
2021/07/24 11:17:03;;;;;;;6.70;5.63;;;;;;;30.88;24.95;99336.25;5010400;28;20096;-71
2021/07/24 11:19:29;;;;;;;6.85;5.50;;;;;;;31.07;24.94;99331.31;5010302;28;20551;-71
2021/07/24 11:22:13;;;;;;;7.10;5.03;;;;;;;31.26;25.00;99339.97;5009338;28;20041;-71
2021/07/24 11:24:39;;;;;;;8.15;5.40;;;;;;;31.03;24.75;99344.28;5010067;28;20049;-71
2021/07/24 11:27:09;;;;;;;7.72;5.47;;;;;;;30.76;24.82;99345.84;5010653;28;20021;-70
2021/07/24 11:29:34;;;;;;;6.70;5.22;;;;;;;30.69;24.83;99341.19;5010061;28;20092;-70
2021/07/24 11:32:04;;;;;;;12.90;5.30;;;;;;;30.60;25.99;99344.03;5010046;28;20451;-69